createdAt,value
2022-08-17T00:02:00.502Z,20.93
2022-08-17T00:04:31.353Z,20.86
2022-08-17T00:06:57.790Z,21.00
2022-08-17T00:09:24.235Z,21.08
2022-08-17T00:12:40.866Z,21.11
2022-08-17T00:14:37.316Z,21.15
2022-08-17T00:17:04.580Z,21.04
2022-08-17T00:19:32.496Z,20.93
2022-08-17T00:22:33.213Z,20.85
2022-08-17T00:24:46.934Z,20.79
2022-08-17T00:27:13.363Z,20.79
2022-08-17T00:29:39.813Z,20.66
2022-08-17T00:33:14.382Z,20.74
2022-08-17T00:34:52.905Z,20.74
2022-08-17T00:37:19.328Z,20.63
2022-08-17T00:39:45.799Z,20.47
2022-08-17T00:42:17.551Z,20.32
2022-08-17T00:44:44.454Z,20.16
2022-08-17T00:47:10.863Z,20.04
2022-08-17T00:49:37.286Z,20.14
2022-08-17T00:52:11.650Z,20.16
2022-08-17T00:54:42.861Z,20.11
2022-08-17T00:57:24.977Z,20.09
2022-08-17T01:00:03.316Z,20.16
2022-08-17T01:02:44.439Z,20.27
2022-08-17T01:05:21.129Z,20.35
2022-08-17T01:07:50.680Z,20.45
2022-08-17T01:10:59.041Z,20.50
2022-08-17T01:13:07.365Z,20.32
2022-08-17T01:15:41.276Z,20.46
2022-08-17T01:18:13.499Z,20.32
2022-08-17T01:20:48.839Z,20.33
2022-08-17T01:23:20.593Z,20.11
2022-08-17T01:25:51.506Z,19.94
2022-08-17T01:28:53.227Z,19.90
2022-08-17T01:31:07.542Z,19.89
2022-08-17T01:33:34.382Z,19.78
2022-08-17T01:36:00.801Z,19.75
2022-08-17T01:38:31.547Z,19.92
2022-08-17T01:41:04.673Z,19.99
2022-08-17T01:43:38.963Z,19.83
2022-08-17T01:46:05.654Z,19.68
2022-08-17T01:48:33.925Z,19.64
2022-08-17T01:51:00.896Z,19.70
2022-08-17T01:53:39.877Z,19.80
2022-08-17T01:56:09.469Z,19.55
2022-08-17T01:58:36.491Z,19.41
2022-08-17T02:01:04.522Z,19.50
2022-08-17T02:03:31.997Z,19.38
2022-08-17T02:05:58.556Z,19.36
2022-08-17T02:08:37.135Z,19.26
2022-08-17T02:11:11.646Z,19.27
2022-08-17T02:13:38.880Z,19.25
2022-08-17T02:16:05.307Z,19.18
2022-08-17T02:18:31.729Z,19.17
2022-08-17T02:20:58.349Z,19.24
2022-08-17T02:23:26.909Z,19.44
2022-08-17T02:25:53.906Z,19.49
2022-08-17T02:28:20.325Z,19.32
2022-08-17T02:30:59.759Z,19.34
2022-08-17T02:33:43.188Z,19.30
2022-08-17T02:36:11.307Z,19.46
2022-08-17T02:38:38.644Z,19.25
2022-08-17T02:41:05.212Z,19.30
2022-08-17T02:43:31.880Z,19.15
2022-08-17T02:45:58.314Z,19.12
2022-08-17T02:48:31.446Z,18.98
2022-08-17T02:50:59.096Z,18.80
2022-08-17T02:53:25.937Z,18.91
2022-08-17T02:55:52.577Z,18.92
2022-08-17T02:58:34.698Z,19.12
2022-08-17T03:01:03.234Z,19.13
2022-08-17T03:03:29.725Z,19.09
2022-08-17T03:05:56.322Z,19.06
2022-08-17T03:08:23.349Z,19.20
2022-08-17T03:10:50.321Z,19.21
2022-08-17T03:13:16.959Z,19.08
2022-08-17T03:15:45.168Z,19.11
2022-08-17T03:18:19.285Z,19.21
2022-08-17T03:20:52.422Z,19.01
2022-08-17T03:23:18.866Z,19.10
2022-08-17T03:25:52.966Z,18.78
2022-08-17T03:28:20.073Z,18.78
2022-08-17T03:30:46.502Z,18.88
2022-08-17T03:33:13.044Z,18.82
2022-08-17T03:35:40.332Z,19.00
2022-08-17T03:38:08.569Z,18.87
2022-08-17T03:40:56.753Z,18.80
2022-08-17T03:43:22.598Z,18.85
2022-08-17T03:46:10.075Z,18.75
2022-08-17T03:49:14.577Z,18.60
2022-08-17T03:51:59.489Z,18.57
2022-08-17T03:54:44.216Z,18.66
2022-08-17T03:57:11.216Z,18.67
2022-08-17T03:59:38.720Z,18.73
2022-08-17T04:02:14.244Z,18.80
2022-08-17T04:04:40.681Z,18.74
2022-08-17T04:07:07.339Z,18.80
2022-08-17T04:09:34.012Z,18.81
2022-08-17T04:12:02.411Z,18.90
2022-08-17T04:14:39.193Z,18.76
2022-08-17T04:17:21.135Z,18.77
2022-08-17T04:19:47.564Z,18.66
2022-08-17T04:22:32.681Z,18.83
2022-08-17T04:25:04.277Z,18.88
2022-08-17T04:27:30.713Z,18.74
2022-08-17T04:29:58.408Z,18.82
2022-08-17T04:33:04.735Z,18.93
2022-08-17T04:35:11.252Z,18.85
2022-08-17T04:37:37.651Z,18.80
2022-08-17T04:40:27.433Z,18.68
2022-08-17T04:43:04.805Z,18.61
2022-08-17T04:45:32.309Z,18.76
2022-08-17T04:47:59.544Z,18.68
2022-08-17T04:50:26.026Z,18.67
2022-08-17T04:52:52.457Z,18.70
2022-08-17T04:55:18.983Z,18.75
2022-08-17T04:57:45.438Z,18.61
2022-08-17T05:00:12.248Z,18.69
2022-08-17T05:02:50.745Z,18.70
2022-08-17T05:05:22.885Z,18.59
2022-08-17T05:07:54.368Z,18.64
2022-08-17T05:10:25.450Z,18.75
2022-08-17T05:13:09.414Z,18.77
2022-08-17T05:15:38.981Z,18.83
2022-08-17T05:18:12.975Z,18.87
2022-08-17T05:20:40.708Z,18.90
2022-08-17T05:23:10.539Z,19.01
2022-08-17T05:25:48.720Z,19.03
2022-08-17T05:28:18.359Z,19.07
2022-08-17T05:30:45.786Z,19.23
2022-08-17T05:33:21.354Z,19.27
2022-08-17T05:35:48.823Z,19.28
2022-08-17T05:38:16.808Z,19.33
2022-08-17T05:40:43.841Z,19.30
2022-08-17T05:43:14.983Z,19.33
2022-08-17T05:46:02.794Z,19.37
2022-08-17T05:48:39.592Z,19.45
2022-08-17T05:51:06.767Z,19.54
2022-08-17T05:53:44.045Z,19.65
2022-08-17T05:56:56.526Z,19.70
2022-08-17T05:59:59.668Z,19.70
2022-08-17T06:02:54.091Z,19.80
2022-08-17T06:05:38.940Z,19.77
2022-08-17T06:08:48.142Z,19.75
2022-08-17T06:11:42.305Z,19.77
2022-08-17T06:14:29.092Z,20.03
2022-08-17T06:17:00.978Z,20.16
2022-08-17T06:19:40.583Z,20.25
2022-08-17T06:22:08.749Z,20.19
2022-08-17T06:24:43.380Z,20.27
2022-08-17T06:27:25.570Z,20.34
2022-08-17T06:29:58.984Z,20.29
2022-08-17T06:32:25.653Z,20.31
2022-08-17T06:34:52.547Z,20.49
2022-08-17T06:37:43.044Z,20.46
2022-08-17T06:40:15.588Z,20.50
2022-08-17T06:43:07.466Z,20.55
2022-08-17T06:45:42.257Z,20.54
2022-08-17T06:48:17.750Z,20.76
2022-08-17T06:50:49.780Z,20.86
2022-08-17T06:53:17.584Z,20.96
2022-08-17T06:55:52.110Z,21.13
2022-08-17T06:58:22.225Z,21.30
2022-08-17T07:00:58.082Z,21.39
2022-08-17T07:03:54.649Z,21.47
2022-08-17T07:06:29.907Z,21.53
2022-08-17T07:09:28.033Z,21.57
2022-08-17T07:12:00.734Z,21.67
2022-08-17T07:14:31.897Z,21.70
2022-08-17T07:17:01.938Z,21.78
2022-08-17T07:19:31.621Z,21.89
2022-08-17T07:22:08.805Z,21.87
2022-08-17T07:24:57.647Z,22.00
2022-08-17T07:27:52.081Z,22.02
2022-08-17T07:30:25.674Z,22.15
2022-08-17T07:33:01.250Z,22.26
2022-08-17T07:35:31.275Z,22.29
2022-08-17T07:38:32.056Z,22.44
2022-08-17T07:41:01.808Z,22.49
2022-08-17T07:43:34.816Z,22.56
2022-08-17T07:46:39.725Z,22.68
2022-08-17T07:49:08.999Z,22.82
2022-08-17T07:51:43.704Z,22.90
2022-08-17T07:54:15.883Z,23.01
2022-08-17T07:57:08.335Z,23.02
2022-08-17T07:59:40.710Z,22.96
2022-08-17T08:02:38.563Z,23.14
2022-08-17T08:05:12.787Z,23.29
2022-08-17T08:07:48.225Z,23.42
2022-08-17T08:10:27.560Z,23.46
2022-08-17T08:13:24.045Z,23.93
2022-08-17T08:15:56.318Z,24.40
2022-08-17T08:18:55.041Z,24.56
2022-08-17T08:21:28.947Z,24.73
2022-08-17T08:24:01.396Z,24.56
2022-08-17T08:26:42.319Z,24.26
2022-08-17T08:29:28.065Z,24.16
2022-08-17T08:32:23.676Z,24.30
2022-08-17T08:35:11.343Z,24.52
2022-08-17T08:37:52.883Z,24.98
2022-08-17T08:40:38.289Z,25.41
2022-08-17T08:43:42.117Z,25.51
2022-08-17T08:46:39.465Z,25.50
2022-08-17T08:49:59.115Z,25.59
2022-08-17T08:52:49.870Z,25.44
2022-08-17T08:55:35.578Z,25.22
2022-08-17T08:58:31.744Z,25.59
2022-08-17T09:00:58.306Z,26.00
2022-08-17T09:03:52.678Z,26.21
2022-08-17T09:06:39.835Z,26.19
2022-08-17T09:09:33.649Z,26.28
2022-08-17T09:12:25.847Z,26.05
2022-08-17T09:15:13.226Z,26.31
2022-08-17T09:19:03.565Z,26.59
2022-08-17T09:21:33.657Z,26.25
2022-08-17T09:24:32.970Z,26.75
2022-08-17T09:27:11.609Z,27.09
2022-08-17T09:29:41.274Z,27.03
2022-08-17T09:32:22.501Z,27.22
2022-08-17T09:35:00.169Z,27.11
2022-08-17T09:37:49.972Z,27.10
2022-08-17T09:40:24.437Z,26.84
2022-08-17T09:42:59.161Z,26.78
2022-08-17T09:45:35.915Z,26.64
2022-08-17T09:48:08.673Z,26.76
2022-08-17T09:51:05.377Z,26.61
2022-08-17T09:53:25.247Z,26.37
2022-08-17T09:55:57.934Z,26.25
2022-08-17T09:58:42.490Z,26.48
2022-08-17T10:01:31.463Z,26.54
2022-08-17T10:04:29.877Z,26.48
2022-08-17T10:07:12.705Z,26.48
2022-08-17T10:10:13.548Z,26.42
2022-08-17T10:12:54.100Z,26.46
2022-08-17T10:15:43.012Z,26.40
2022-08-17T10:18:32.173Z,26.50
2022-08-17T10:21:20.493Z,26.33
2022-08-17T10:24:19.028Z,26.34
2022-08-17T10:26:56.651Z,26.30
2022-08-17T10:29:47.334Z,26.32
2022-08-17T10:32:35.873Z,26.12
2022-08-17T10:35:17.950Z,26.27
2022-08-17T10:37:47.267Z,26.17
2022-08-17T10:40:53.008Z,26.03
2022-08-17T10:43:38.413Z,25.79
2022-08-17T10:46:33.504Z,25.85
2022-08-17T10:49:20.979Z,25.76
2022-08-17T10:51:49.711Z,25.80
2022-08-17T10:54:24.964Z,25.83
2022-08-17T10:56:55.954Z,25.92
2022-08-17T10:59:34.549Z,25.92
2022-08-17T11:02:00.847Z,25.75
2022-08-17T11:04:39.153Z,25.84
2022-08-17T11:07:08.486Z,25.73
2022-08-17T11:09:58.311Z,25.63
2022-08-17T11:12:33.687Z,25.54
2022-08-17T11:15:16.260Z,25.44
2022-08-17T11:17:57.444Z,25.58
2022-08-17T11:20:38.349Z,25.46
2022-08-17T11:23:30.296Z,25.58
2022-08-17T11:25:58.855Z,25.54
2022-08-17T11:28:34.182Z,25.27
2022-08-17T11:31:23.583Z,25.07
2022-08-17T11:34:26.199Z,25.10
2022-08-17T11:37:00.919Z,24.99
2022-08-17T11:40:06.483Z,24.90
2022-08-17T11:42:57.083Z,24.73
2022-08-17T11:45:35.880Z,24.62
2022-08-17T11:48:40.609Z,24.62
2022-08-17T11:51:32.149Z,24.78
2022-08-17T11:54:33.763Z,24.97
2022-08-17T11:57:36.121Z,24.97
2022-08-17T12:00:11.092Z,25.08
2022-08-17T12:02:48.475Z,25.13
2022-08-17T12:05:16.706Z,25.26
2022-08-17T12:07:46.930Z,25.28
2022-08-17T12:10:21.404Z,25.28
2022-08-17T12:12:50.141Z,24.94
2022-08-17T12:15:19.274Z,25.00
2022-08-17T12:17:53.747Z,25.08
2022-08-17T12:20:29.283Z,25.32
2022-08-17T12:23:04.805Z,25.76
2022-08-17T12:25:41.174Z,25.43
2022-08-17T12:28:28.561Z,25.51
2022-08-17T12:31:01.058Z,25.23
2022-08-17T12:33:28.855Z,25.00
2022-08-17T12:36:02.763Z,25.33
2022-08-17T12:38:34.296Z,25.62
2022-08-17T12:41:21.705Z,25.58
2022-08-17T12:44:01.999Z,25.40
2022-08-17T12:46:51.572Z,25.47
2022-08-17T12:49:42.103Z,25.27
2022-08-17T12:52:12.211Z,25.45
2022-08-17T12:54:51.165Z,25.69
2022-08-17T12:57:21.777Z,26.11
2022-08-17T13:00:08.744Z,26.45
2022-08-17T13:02:54.792Z,26.95
2022-08-17T13:05:29.099Z,27.59
2022-08-17T13:07:58.120Z,28.13
2022-08-17T13:10:33.441Z,27.74
2022-08-17T13:13:05.181Z,27.53
2022-08-17T13:15:36.762Z,27.48
2022-08-17T13:18:28.129Z,28.07
2022-08-17T13:20:58.056Z,27.77
2022-08-17T13:23:26.177Z,28.08
2022-08-17T13:26:04.433Z,27.79
2022-08-17T13:28:36.281Z,28.44
2022-08-17T13:31:21.829Z,28.09
2022-08-17T13:33:49.188Z,27.47
2022-08-17T13:36:30.200Z,29.13
2022-08-17T13:39:13.390Z,29.50
2022-08-17T13:41:39.859Z,29.86
2022-08-17T13:44:37.082Z,31.09
2022-08-17T13:47:16.920Z,32.10
2022-08-17T13:49:49.048Z,32.27
2022-08-17T13:52:35.816Z,32.91
2022-08-17T13:55:18.355Z,32.18
2022-08-17T13:57:47.105Z,33.39
2022-08-17T14:00:18.763Z,32.17
2022-08-17T14:02:45.181Z,33.03
2022-08-17T14:05:11.730Z,32.62
2022-08-17T14:07:40.468Z,32.76
2022-08-17T14:10:17.233Z,32.72
2022-08-17T14:12:44.616Z,33.10
2022-08-17T14:15:13.753Z,30.79
2022-08-17T14:17:40.197Z,29.62
2022-08-17T14:20:09.612Z,29.59
2022-08-17T14:22:37.717Z,28.66
2022-08-17T14:25:05.071Z,28.72
2022-08-17T14:27:47.469Z,27.69
2022-08-17T14:30:20.007Z,27.86
2022-08-17T14:32:48.950Z,29.16
2022-08-17T14:35:16.062Z,28.93
2022-08-17T14:37:42.864Z,29.16
2022-08-17T14:40:11.763Z,28.83
2022-08-17T14:42:40.978Z,28.89
2022-08-17T14:45:31.874Z,28.61
2022-08-17T14:47:56.684Z,28.50
2022-08-17T14:50:24.064Z,28.16
2022-08-17T14:52:50.544Z,28.20
2022-08-17T14:55:18.216Z,28.10
2022-08-17T14:57:45.039Z,28.19
2022-08-17T15:00:11.974Z,27.86
2022-08-17T15:02:54.000Z,27.58
2022-08-17T15:05:25.881Z,27.50
2022-08-17T15:07:55.699Z,27.65
2022-08-17T15:10:22.420Z,28.16
2022-08-17T15:12:49.065Z,28.66
2022-08-17T15:15:16.947Z,29.10
2022-08-17T15:17:45.901Z,28.77
2022-08-17T15:20:15.614Z,28.88
2022-08-17T15:22:44.341Z,28.82
2022-08-17T15:25:11.545Z,28.78
2022-08-17T15:27:38.027Z,28.95
2022-08-17T15:30:05.956Z,28.69
2022-08-17T15:32:38.014Z,28.33
2022-08-17T15:35:06.485Z,27.68
2022-08-17T15:37:33.333Z,27.41
2022-08-17T15:40:02.946Z,26.70
2022-08-17T15:42:29.503Z,26.74
2022-08-17T15:44:56.033Z,26.62
2022-08-17T15:47:23.265Z,26.48
2022-08-17T15:49:50.747Z,26.02
2022-08-17T15:52:25.129Z,25.98
2022-08-17T15:54:56.625Z,26.28
2022-08-17T15:57:26.914Z,26.86
2022-08-17T15:59:58.886Z,26.63
2022-08-17T16:03:44.413Z,26.59
2022-08-17T16:05:25.183Z,27.24
2022-08-17T16:07:52.560Z,27.19
2022-08-17T16:10:19.706Z,27.43
2022-08-17T16:12:48.216Z,27.77
2022-08-17T16:15:15.318Z,27.89
2022-08-17T16:17:41.810Z,27.73
2022-08-17T16:20:19.601Z,27.81
2022-08-17T16:22:47.277Z,27.46
2022-08-17T16:25:20.299Z,27.80
2022-08-17T16:27:48.654Z,27.93
2022-08-17T16:30:17.649Z,27.79
2022-08-17T16:32:44.983Z,27.55
2022-08-17T16:35:12.146Z,27.53
2022-08-17T16:37:40.184Z,27.34
2022-08-17T16:40:11.778Z,27.18
2022-08-17T16:42:39.589Z,26.65
2022-08-17T16:45:16.761Z,26.25
2022-08-17T16:47:43.593Z,26.26
2022-08-17T16:50:12.548Z,26.31
2022-08-17T16:52:40.001Z,26.00
2022-08-17T16:55:08.675Z,25.61
2022-08-17T16:57:37.273Z,25.87
2022-08-17T17:00:15.937Z,25.87
2022-08-17T17:02:47.881Z,25.94
2022-08-17T17:05:37.689Z,25.83
2022-08-17T17:08:12.670Z,25.91
2022-08-17T17:10:45.673Z,26.14
2022-08-17T17:13:27.753Z,26.41
2022-08-17T17:16:21.741Z,26.34
2022-08-17T17:19:01.525Z,26.15
2022-08-17T17:21:35.367Z,26.13
2022-08-17T17:24:09.360Z,25.42
2022-08-17T17:26:57.969Z,25.43
2022-08-17T17:29:48.545Z,25.11
2022-08-17T17:32:44.460Z,25.18
2022-08-17T17:35:16.308Z,25.38
2022-08-17T17:37:43.068Z,25.45
2022-08-17T17:40:23.749Z,25.56
2022-08-17T17:42:55.967Z,25.37
2022-08-17T17:45:23.815Z,25.46
2022-08-17T17:47:50.512Z,25.45
2022-08-17T17:50:19.200Z,25.12
2022-08-17T17:53:17.896Z,24.76
2022-08-17T17:56:34.933Z,24.76
2022-08-17T17:59:16.178Z,24.95
2022-08-17T18:02:36.854Z,24.53
2022-08-17T18:05:18.484Z,24.67
2022-08-17T18:07:54.216Z,24.88
2022-08-17T18:10:29.562Z,24.86
2022-08-17T18:13:08.973Z,24.67
2022-08-17T18:15:51.568Z,24.87
2022-08-17T18:18:17.899Z,24.62
2022-08-17T18:20:53.839Z,24.51
2022-08-17T18:23:27.695Z,24.51
2022-08-17T18:25:55.066Z,24.41
2022-08-17T18:28:26.736Z,24.22
2022-08-17T18:31:22.557Z,24.31
2022-08-17T18:33:51.593Z,24.32
2022-08-17T18:36:32.462Z,24.25
2022-08-17T18:39:17.653Z,24.10
2022-08-17T18:41:50.319Z,23.80
2022-08-17T18:44:25.338Z,23.85
2022-08-17T18:47:19.091Z,23.54
2022-08-17T18:50:10.855Z,23.68
2022-08-17T18:52:37.311Z,23.48
2022-08-17T18:55:16.416Z,23.54
2022-08-17T18:57:49.672Z,23.57
2022-08-17T19:00:20.458Z,23.57
2022-08-17T19:02:55.827Z,23.46
2022-08-17T19:05:33.386Z,23.26
2022-08-17T19:08:20.469Z,23.42
2022-08-17T19:10:49.259Z,23.46
2022-08-17T19:13:24.518Z,23.41
2022-08-17T19:16:13.027Z,23.28
2022-08-17T19:18:50.956Z,23.36
2022-08-17T19:25:19.433Z,23.12
2022-08-17T19:31:35.434Z,22.72
2022-08-17T19:34:01.906Z,22.41
2022-08-17T19:36:50.176Z,22.39
2022-08-17T19:39:38.366Z,22.33
2022-08-17T19:42:14.158Z,22.43
2022-08-17T19:48:39.049Z,22.44
2022-08-17T19:51:10.597Z,22.39
2022-08-17T19:54:04.913Z,22.18
2022-08-17T19:56:44.474Z,22.24
2022-08-17T19:59:36.018Z,22.49
2022-08-17T20:02:28.236Z,22.41
2022-08-17T20:04:59.165Z,22.51
2022-08-17T20:07:45.496Z,22.63
2022-08-17T20:10:30.855Z,22.67
2022-08-17T20:13:04.048Z,22.57
2022-08-17T20:15:34.416Z,22.54
2022-08-17T20:18:02.708Z,22.48
2022-08-17T20:20:47.242Z,22.29
2022-08-17T20:23:30.693Z,22.02
2022-08-17T20:26:08.366Z,21.96
2022-08-17T20:28:38.817Z,21.82
2022-08-17T20:31:38.688Z,21.74
2022-08-17T20:34:37.345Z,21.45
2022-08-17T20:37:13.045Z,21.44
2022-08-17T20:39:44.644Z,21.67
2022-08-17T20:42:30.763Z,21.75
2022-08-17T20:45:05.458Z,21.68
2022-08-17T20:47:55.339Z,21.43
2022-08-17T20:50:35.500Z,21.65
2022-08-17T20:53:02.754Z,21.56
2022-08-17T20:55:51.426Z,21.58
2022-08-17T20:58:36.923Z,21.64
2022-08-17T21:01:12.134Z,21.66
2022-08-17T21:03:51.304Z,21.59
2022-08-17T21:06:20.481Z,21.36
2022-08-17T21:08:58.717Z,21.10
2022-08-17T21:11:56.864Z,20.89
2022-08-17T21:14:31.534Z,20.89
2022-08-17T21:17:01.335Z,21.10
2022-08-17T21:20:00.192Z,20.76
2022-08-17T21:23:00.762Z,20.68
2022-08-17T21:26:04.214Z,20.88
2022-08-17T21:29:30.230Z,20.66
2022-08-17T21:32:03.755Z,20.75
2022-08-17T21:34:37.813Z,20.67
2022-08-17T21:37:23.331Z,20.55
2022-08-17T21:39:57.498Z,20.52
2022-08-17T21:42:33.903Z,20.51
2022-08-17T21:45:22.407Z,20.62
2022-08-17T21:47:51.046Z,20.74
2022-08-17T21:50:23.462Z,20.79
2022-08-17T21:52:53.882Z,20.66
2022-08-17T21:55:28.009Z,20.72
2022-08-17T21:58:13.502Z,20.57
2022-08-17T22:00:41.733Z,20.47
2022-08-17T22:03:22.454Z,20.42
2022-08-17T22:05:51.126Z,20.46
2022-08-17T22:08:26.799Z,20.58
2022-08-17T22:11:01.282Z,20.54
2022-08-17T22:13:29.786Z,20.43
2022-08-17T22:16:29.477Z,20.27
2022-08-17T22:18:58.257Z,20.40
2022-08-17T22:21:25.526Z,20.62
2022-08-17T22:24:05.089Z,20.64
2022-08-17T22:27:00.010Z,20.51
2022-08-17T22:30:00.202Z,20.46
2022-08-17T22:32:42.239Z,20.36
2022-08-17T22:35:26.794Z,20.22
2022-08-17T22:37:53.272Z,20.11
2022-08-17T22:40:32.026Z,19.96
2022-08-17T22:43:00.709Z,20.01
2022-08-17T22:45:29.679Z,20.07
2022-08-17T22:47:57.538Z,20.16
2022-08-17T22:50:31.451Z,20.15
2022-08-17T22:53:22.490Z,20.09
2022-08-17T22:56:12.736Z,19.89
2022-08-17T22:59:08.617Z,19.74
2022-08-17T23:01:35.459Z,19.57
2022-08-17T23:04:15.911Z,19.53
2022-08-17T23:06:42.484Z,19.48
2022-08-17T23:09:09.204Z,19.38
2022-08-17T23:11:49.958Z,19.30
2022-08-17T23:14:19.022Z,19.18
2022-08-17T23:16:45.565Z,19.30
2022-08-17T23:19:15.378Z,19.20
2022-08-17T23:21:44.633Z,19.36
2022-08-17T23:24:16.012Z,19.48
2022-08-17T23:26:42.442Z,19.28
2022-08-17T23:29:09.328Z,19.25
2022-08-17T23:31:38.442Z,19.12
2022-08-17T23:34:08.993Z,19.07
2022-08-17T23:36:35.937Z,19.07
2022-08-17T23:39:02.673Z,18.87
2022-08-17T23:41:34.412Z,18.80
2022-08-17T23:44:01.722Z,18.81
2022-08-17T23:46:28.161Z,18.74
2022-08-17T23:48:54.618Z,18.74
2022-08-17T23:51:26.302Z,18.71
2022-08-17T23:53:55.405Z,18.61
2022-08-17T23:56:25.697Z,18.60
2022-08-17T23:58:54.658Z,18.63
